Terminal Aerodrome Forecast
Issued by NWS

Home | Current Version | Previous Version | Text Only | Print | Product List | Glossary On
Versions: 1 2 3 4 5 6 7 8 9 10 11 12 13 14 15 16 17 18
818
FTUS41 KGYX 141120
TAFHIE
TAF
KHIE 141120Z 1412/1512 20006KT P6SM BKN025 OVC035
      TEMPO 1412/1415 29007KT SCT040 BKN050
     FM141500 29007KT P6SM SCT040 BKN050
     FM141800 28005KT P6SM SCT050 SCT070
     FM150000 00000KT P6SM SKC=

USA.gov is the U.S. government's official web portal to all federal, state and local government web resources and services.